createdAt,value
2022-10-20T00:01:10.168Z,17.17
2022-10-20T00:06:33.241Z,17.75
2022-10-20T00:11:54.977Z,16.98
2022-10-20T00:17:16.674Z,20.90
2022-10-20T00:22:38.530Z,17.70
2022-10-20T00:28:00.502Z,13.45
2022-10-20T00:33:23.367Z,13.82
2022-10-20T00:38:45.669Z,22.45
2022-10-20T00:44:46.878Z,14.07
2022-10-20T00:50:12.652Z,13.73
2022-10-20T00:55:37.391Z,14.18
2022-10-20T01:00:59.650Z,12.85
2022-10-20T01:06:22.663Z,15.98
2022-10-20T01:12:08.258Z,14.65
2022-10-20T01:17:54.558Z,14.13
2022-10-20T01:23:35.617Z,14.10
2022-10-20T01:29:04.770Z,16.48
2022-10-20T01:34:53.063Z,11.45
2022-10-20T01:40:32.302Z,13.25
2022-10-20T01:45:56.992Z,13.80
2022-10-20T01:51:18.688Z,16.73
2022-10-20T01:56:52.984Z,17.98
2022-10-20T02:02:35.412Z,14.10
2022-10-20T02:08:15.628Z,16.98
2022-10-20T02:13:39.527Z,16.73
2022-10-20T02:19:02.267Z,16.25
2022-10-20T02:24:30.524Z,13.90
2022-10-20T02:30:02.492Z,16.50
2022-10-20T02:35:30.515Z,16.40
2022-10-20T02:40:52.205Z,16.02
2022-10-20T02:46:13.990Z,19.10
2022-10-20T02:51:35.703Z,16.83
2022-10-20T02:56:57.411Z,18.02
2022-10-20T03:02:19.125Z,14.25
2022-10-20T03:07:40.869Z,18.17
2022-10-20T03:13:02.606Z,18.30
2022-10-20T03:18:24.353Z,13.90
2022-10-20T03:23:46.146Z,24.80
2022-10-20T03:29:07.804Z,14.45
2022-10-20T03:34:29.513Z,15.25
2022-10-20T03:39:51.243Z,14.65
2022-10-20T03:45:15.021Z,16.25
2022-10-20T03:50:41.528Z,19.15
2022-10-20T03:56:07.694Z,14.55
2022-10-20T04:01:31.949Z,15.05
2022-10-20T04:06:53.752Z,15.15
2022-10-20T04:12:15.441Z,18.40
2022-10-20T04:17:37.266Z,17.58
2022-10-20T04:22:58.947Z,19.25
2022-10-20T04:28:21.111Z,21.77
2022-10-20T04:33:42.868Z,14.02
2022-10-20T04:39:08.206Z,17.70
2022-10-20T04:44:29.846Z,20.02
2022-10-20T04:49:51.567Z,18.55
2022-10-20T04:55:13.287Z,19.42
2022-10-20T05:00:37.603Z,17.63
2022-10-20T05:06:19.634Z,17.60
2022-10-20T05:11:42.501Z,20.05
2022-10-20T05:17:06.510Z,22.02
2022-10-20T05:22:31.030Z,19.23
2022-10-20T05:27:52.890Z,19.27
2022-10-20T05:33:14.641Z,16.48
2022-10-20T05:38:36.947Z,17.98
2022-10-20T05:44:00.852Z,19.73
2022-10-20T05:49:23.458Z,20.05
2022-10-20T05:54:45.134Z,19.33
2022-10-20T06:00:07.578Z,17.73
2022-10-20T06:05:29.333Z,16.42
2022-10-20T06:10:51.073Z,20.30
2022-10-20T06:16:18.067Z,20.30
2022-10-20T06:21:39.887Z,13.63
2022-10-20T06:27:01.735Z,14.50
2022-10-20T06:32:23.510Z,14.85
2022-10-20T06:37:45.247Z,13.35
2022-10-20T06:43:06.988Z,14.38
2022-10-20T06:48:29.267Z,12.27
2022-10-20T06:53:51.552Z,14.50
2022-10-20T06:59:13.422Z,14.15
2022-10-20T07:04:35.112Z,15.68
2022-10-20T07:09:56.795Z,18.95
2022-10-20T07:15:18.561Z,18.95
2022-10-20T07:20:40.250Z,20.13
2022-10-20T07:26:11.073Z,16.88
2022-10-20T07:31:36.901Z,16.52
2022-10-20T07:36:58.809Z,12.50
2022-10-20T07:42:20.525Z,10.45
2022-10-20T07:47:44.271Z,10.80
2022-10-20T07:53:08.661Z,9.77
2022-10-20T07:58:30.354Z,13.30
2022-10-20T08:03:52.058Z,10.43
2022-10-20T08:09:13.826Z,14.88
2022-10-20T08:14:37.769Z,7.85
2022-10-20T08:20:14.541Z,7.60
2022-10-20T08:25:36.227Z,7.72
2022-10-20T08:30:57.911Z,8.07
2022-10-20T08:36:20.689Z,7.85
2022-10-20T08:42:06.963Z,6.80
2022-10-20T08:47:33.738Z,7.10
2022-10-20T08:52:59.358Z,7.95
2022-10-20T08:58:23.532Z,7.45
2022-10-20T09:03:45.484Z,6.00
2022-10-20T09:09:07.215Z,5.95
2022-10-20T09:14:32.104Z,7.05
2022-10-20T09:19:57.088Z,10.80
2022-10-20T09:25:23.954Z,7.18
2022-10-20T09:30:45.748Z,5.82
2022-10-20T09:36:17.929Z,7.18
2022-10-20T09:41:40.941Z,6.28
2022-10-20T09:47:03.550Z,4.65
2022-10-20T09:52:35.151Z,6.80
2022-10-20T09:58:00.397Z,7.85
2022-10-20T10:03:23.835Z,8.50
2022-10-20T10:08:46.542Z,7.13
2022-10-20T10:14:22.999Z,6.07
2022-10-20T10:19:51.403Z,12.40
2022-10-20T10:25:19.977Z,6.60
2022-10-20T10:30:46.829Z,8.18
2022-10-20T10:36:18.436Z,6.05
2022-10-20T10:41:55.358Z,9.45
2022-10-20T10:47:46.940Z,7.63
2022-10-20T10:53:14.803Z,5.82
2022-10-20T10:59:03.959Z,11.23
2022-10-20T11:05:03.098Z,6.20
2022-10-20T11:11:02.966Z,8.75
2022-10-20T11:16:43.842Z,9.45
2022-10-20T11:22:05.498Z,8.10
2022-10-20T11:27:32.029Z,8.38
2022-10-20T11:33:13.388Z,7.60
2022-10-20T11:38:43.566Z,5.50
2022-10-20T11:44:26.655Z,9.07
2022-10-20T11:49:48.401Z,9.02
2022-10-20T11:55:28.781Z,8.57
2022-10-20T12:01:00.583Z,5.75
2022-10-20T12:06:55.059Z,7.55
2022-10-20T12:12:30.827Z,6.40
2022-10-20T12:18:13.961Z,9.27
2022-10-20T12:23:54.617Z,6.15
2022-10-20T12:29:51.282Z,4.95
2022-10-20T12:35:13.025Z,7.43
2022-10-20T12:40:47.431Z,4.97
2022-10-20T12:46:15.962Z,4.95
2022-10-20T12:51:48.457Z,8.32
2022-10-20T12:57:45.044Z,8.30
2022-10-20T13:03:46.681Z,8.35
2022-10-20T13:09:10.354Z,5.47
2022-10-20T13:14:47.351Z,6.80
2022-10-20T13:20:39.415Z,6.18
2022-10-20T13:26:23.625Z,7.35
2022-10-20T13:32:11.063Z,14.88
2022-10-20T13:38:12.846Z,8.35
2022-10-20T13:43:58.789Z,12.13
2022-10-20T13:49:28.526Z,9.50
2022-10-20T13:54:52.031Z,8.60
2022-10-20T14:00:32.273Z,16.00
2022-10-20T14:05:54.670Z,13.18
2022-10-20T14:11:16.423Z,11.88
2022-10-20T14:16:39.219Z,12.10
2022-10-20T14:22:23.085Z,13.23
2022-10-20T14:27:45.247Z,5.80
2022-10-20T14:33:11.832Z,7.35
2022-10-20T14:38:37.663Z,9.80
2022-10-20T14:44:05.204Z,10.45
2022-10-20T14:49:37.852Z,12.70
2022-10-20T14:54:59.526Z,7.95
2022-10-20T15:00:34.008Z,7.55
2022-10-20T15:06:03.039Z,9.57
2022-10-20T15:11:27.054Z,8.43
2022-10-20T15:16:49.046Z,8.77
2022-10-20T15:27:38.113Z,9.05
2022-10-20T15:32:59.827Z,14.75
2022-10-20T15:38:21.647Z,9.93
2022-10-20T15:43:44.347Z,12.00
2022-10-20T15:49:06.046Z,10.00
2022-10-20T15:54:27.766Z,12.48
2022-10-20T15:59:49.508Z,14.90
2022-10-20T16:05:11.566Z,17.00
2022-10-20T16:10:33.281Z,8.30
2022-10-20T16:15:55.286Z,8.38
2022-10-20T16:21:17.094Z,7.70
2022-10-20T16:26:38.839Z,7.90
2022-10-20T16:32:00.502Z,14.93
2022-10-20T16:37:22.187Z,10.68
2022-10-20T16:42:43.910Z,10.85
2022-10-20T16:48:05.802Z,11.38
2022-10-20T16:53:27.536Z,12.70
2022-10-20T16:58:49.665Z,9.35
2022-10-20T17:04:12.187Z,8.60
2022-10-20T17:09:33.994Z,13.50
2022-10-20T17:14:55.747Z,16.50
2022-10-20T17:20:17.517Z,13.48
2022-10-20T17:25:39.296Z,11.48
2022-10-20T17:31:01.580Z,13.93
2022-10-20T17:36:26.184Z,15.23
2022-10-20T17:41:48.419Z,11.80
2022-10-20T17:47:10.078Z,23.40
2022-10-20T17:52:31.757Z,13.43
2022-10-20T17:57:53.440Z,13.23
2022-10-20T18:03:15.250Z,14.25
2022-10-20T18:08:37.098Z,14.45
2022-10-20T18:14:00.055Z,15.77
2022-10-20T18:19:21.811Z,18.30
2022-10-20T18:24:43.728Z,19.58
2022-10-20T18:30:07.434Z,15.68
2022-10-20T18:35:29.233Z,17.58
2022-10-20T18:40:50.931Z,15.70
2022-10-20T18:46:13.798Z,16.50
2022-10-20T18:51:36.295Z,19.73
2022-10-20T18:56:58.078Z,17.50
2022-10-20T19:02:19.766Z,18.15
2022-10-20T19:07:41.761Z,16.77
2022-10-20T19:13:03.681Z,22.13
2022-10-20T19:18:28.825Z,22.55
2022-10-20T19:23:59.770Z,23.58
2022-10-20T19:29:22.189Z,23.58
2022-10-20T19:34:43.930Z,28.10
2022-10-20T19:40:05.976Z,26.58
2022-10-20T19:45:28.846Z,22.38
2022-10-20T19:50:50.880Z,22.73
2022-10-20T19:56:13.049Z,22.95
2022-10-20T20:01:36.094Z,21.77
2022-10-20T20:07:01.888Z,23.70
2022-10-20T20:12:24.268Z,22.75
2022-10-20T20:17:46.002Z,25.92
2022-10-20T20:23:07.855Z,24.65
2022-10-20T20:28:29.753Z,23.48
2022-10-20T20:33:53.095Z,22.13
2022-10-20T20:39:14.915Z,25.80
2022-10-20T20:44:36.655Z,23.85
2022-10-20T20:49:58.715Z,20.98
2022-10-20T20:55:21.595Z,25.15
2022-10-20T21:00:43.362Z,21.42
2022-10-20T21:06:08.670Z,24.70
2022-10-20T21:11:30.573Z,23.65
2022-10-20T21:16:52.266Z,21.23
2022-10-20T21:22:14.007Z,24.90
2022-10-20T21:27:35.667Z,24.10
2022-10-20T21:32:57.374Z,27.63
2022-10-20T21:38:19.078Z,25.48
2022-10-20T21:43:46.760Z,23.83
2022-10-20T21:49:13.263Z,22.77
2022-10-20T21:54:35.144Z,24.20
2022-10-20T21:59:56.847Z,27.50
2022-10-20T22:05:18.586Z,28.52
2022-10-20T22:10:40.425Z,31.45
2022-10-20T22:16:04.505Z,28.88
2022-10-20T22:21:27.248Z,24.45
2022-10-20T22:26:51.520Z,24.02
2022-10-20T22:32:13.275Z,27.65
2022-10-20T22:37:34.979Z,23.58
2022-10-20T22:42:56.727Z,26.98
2022-10-20T22:48:18.492Z,27.45
2022-10-20T22:53:40.423Z,27.63
2022-10-20T22:59:02.198Z,30.20
2022-10-20T23:04:23.992Z,31.52
2022-10-20T23:09:47.172Z,31.15
2022-10-20T23:15:09.287Z,30.85
2022-10-20T23:20:30.965Z,27.40
2022-10-20T23:25:53.754Z,27.80
2022-10-20T23:31:18.451Z,26.38
2022-10-20T23:36:40.151Z,32.42
2022-10-20T23:42:04.830Z,31.45
2022-10-20T23:47:29.240Z,28.95
2022-10-20T23:52:51.205Z,27.98
2022-10-20T23:58:13.000Z,28.65
